Time;durP1;ratioP1;P1;durP2;ratioP2;P2;SDS_P1;SDS_P2;PMS_P1;PMS_P2;Temp;Humidity;BMP_temperature;BMP_pressure;BME280_temperature;BME280_humidity;BME280_pressure;Samples;Min_cycle;Max_cycle;Signal;HPM_P1;HPM_P2
2022/11/29 00:01:04;;;;;;;13.78;5.60;;;;;;;6.16;100.00;83493.08;1802563;77;21626;-93
2022/11/29 00:03:32;;;;;;;16.77;6.60;;;;;;;6.15;100.00;83491.61;1808345;78;21018;-92
2022/11/29 00:06:08;;;;;;;14.18;6.12;;;;;;;6.13;100.00;84337.14;1805695;78;21242;-91
2022/11/29 00:08:35;;;;;;;16.65;6.15;;;;;;;6.13;100.00;84676.30;1811027;78;20913;-92
2022/11/29 00:11:07;;;;;;;15.08;6.40;;;;;;;6.12;100.00;85182.87;1808925;78;20969;-92
2022/11/29 00:13:34;;;;;;;13.70;6.53;;;;;;;6.10;100.00;86198.37;1805855;78;21031;-92
2022/11/29 00:16:07;;;;;;;21.80;6.83;;;;;;;6.09;100.00;86365.78;1806730;78;21506;-91
2022/11/29 00:18:34;;;;;;;13.30;5.58;;;;;;;6.09;100.00;85347.99;1810284;78;21812;-93
2022/11/29 00:21:06;;;;;;;16.93;5.70;;;;;;;6.09;100.00;85517.60;1808376;78;20913;-91
2022/11/29 00:23:33;;;;;;;17.20;6.12;;;;;;;6.10;100.00;87385.39;1808430;78;21053;-92
2022/11/29 00:26:05;;;;;;;18.37;6.17;;;;;;;6.08;100.00;91288.50;1808381;78;21023;-92
2022/11/29 00:28:33;;;;;;;15.37;6.07;;;;;;;6.09;100.00;93668.70;1805808;78;21449;-92
2022/11/29 00:30:59;;;;;;;15.43;5.92;;;;;;;6.09;100.00;95709.47;1805596;78;21095;-92
2022/11/29 00:33:28;;;;;;;19.12;6.17;;;;;;;6.08;100.00;100133.50;1805570;78;20983;-92
2022/11/29 00:36:00;;;;;;;15.88;6.22;;;;;;;6.06;100.00;106437.66;1811516;78;21032;-93
2022/11/29 00:38:27;;;;;;;15.25;6.08;;;;;;;6.04;100.00;110019.89;1769883;78;20957;-89
2022/11/29 00:40:54;;;;;;;17.05;6.35;;;;;;;6.02;100.00;116513.33;1810760;78;21317;-89
2022/11/29 00:43:21;;;;;;;15.83;5.25;;;;;;;6.02;100.00;120793.80;1813099;78;21140;-89
2022/11/29 00:45:48;;;;;;;18.40;5.75;;;;;;;6.01;100.00;129883.37;1811652;78;21131;-89
2022/11/29 00:48:15;;;;;;;19.95;5.92;;;;;;;5.99;100.00;139165.80;1807352;78;21461;-89
2022/11/29 00:50:42;;;;;;;15.28;7.17;;;;;;;6.01;100.00;143870.70;1806777;78;21090;-89
2022/11/29 00:53:08;;;;;;;16.87;6.40;;;;;;;6.02;100.00;143792.23;1811411;78;20981;-88
2022/11/29 00:55:36;;;;;;;13.15;5.80;;;;;;;6.00;100.00;149169.00;1804477;78;21112;-89
2022/11/29 00:58:03;;;;;;;20.75;6.33;;;;;;;5.98;100.00;149162.56;1799428;78;20944;-89
2022/11/29 01:00:30;;;;;;;14.07;6.30;;;;;;;5.95;100.00;149156.08;1808838;78;20990;-88
2022/11/29 01:02:57;;;;;;;13.45;6.22;;;;;;;5.95;100.00;149156.08;1799517;78;21456;-88
2022/11/29 01:05:24;;;;;;;15.38;6.25;;;;;;;5.92;100.00;149148.33;1801420;78;20888;-88
2022/11/29 01:07:50;;;;;;;11.83;6.20;;;;;;;5.93;100.00;149149.59;1805176;78;21107;-88
2022/11/29 01:10:18;;;;;;;21.75;7.08;;;;;;;5.93;100.00;149150.91;1806908;78;20960;-88
2022/11/29 01:12:44;;;;;;;13.98;5.87;;;;;;;5.91;100.00;149145.75;1807168;78;21472;-88
2022/11/29 01:15:12;;;;;;;16.00;6.08;;;;;;;5.91;100.00;149145.75;1805648;78;21001;-88
2022/11/29 01:17:39;;;;;;;16.32;6.00;;;;;;;5.89;100.00;149140.58;1800023;78;21044;-89
2022/11/29 01:20:07;;;;;;;20.82;7.33;;;;;;;5.90;100.00;149143.16;1802752;78;21234;-88
2022/11/29 01:22:34;;;;;;;19.07;6.90;;;;;;;5.90;100.00;149143.16;1811038;78;20989;-88
2022/11/29 01:25:01;;;;;;;20.72;7.33;;;;;;;5.90;100.00;149143.16;1804027;78;21033;-88
2022/11/29 01:27:28;;;;;;;22.48;5.65;;;;;;;5.88;100.00;149139.25;1801960;78;20986;-88
2022/11/29 01:29:55;;;;;;;12.20;6.05;;;;;;;5.88;100.00;149138.00;1808234;78;21569;-88
2022/11/29 01:32:22;;;;;;;18.32;6.47;;;;;;;5.87;100.00;149135.41;1805366;78;21429;-88
2022/11/29 01:34:49;;;;;;;15.25;7.03;;;;;;;5.86;100.00;149132.81;1806417;78;20993;-88
2022/11/29 01:37:17;;;;;;;18.52;6.37;;;;;;;5.85;100.00;149130.19;1814972;78;21126;-88
2022/11/29 01:39:44;;;;;;;14.83;5.90;;;;;;;5.84;100.00;149127.61;1807768;78;21055;-88
2022/11/29 01:42:12;;;;;;;11.43;6.00;;;;;;;5.83;100.00;149125.02;1810810;78;21000;-89
2022/11/29 01:44:56;;;;;;;16.32;6.65;;;;;;;5.80;100.00;149118.59;1797710;78;21741;-88
2022/11/29 01:47:23;;;;;;;12.10;6.28;;;;;;;5.78;100.00;149112.11;1797970;78;20996;-88
2022/11/29 01:49:50;;;;;;;14.47;6.10;;;;;;;5.78;100.00;149113.42;1799569;78;21447;-88
2022/11/29 01:52:23;;;;;;;9.23;5.72;;;;;;;5.78;100.00;149112.11;1811068;78;21610;-93
2022/11/29 01:54:53;;;;;;;13.88;6.35;;;;;;;5.76;100.00;149106.94;1779761;79;21008;-92
2022/11/29 01:57:20;;;;;;;17.23;6.58;;;;;;;5.73;100.00;149101.77;1810696;78;21260;-92
2022/11/29 01:59:50;;;;;;;14.33;6.70;;;;;;;5.72;100.00;149099.19;1812063;78;21486;-91
2022/11/29 02:02:34;;;;;;;13.85;6.35;;;;;;;5.71;100.00;149096.59;1808868;78;21457;-91
2022/11/29 02:05:01;;;;;;;14.15;6.55;;;;;;;5.72;100.00;149097.87;1804439;78;20948;-89
2022/11/29 02:07:28;;;;;;;14.07;6.65;;;;;;;5.71;100.00;149095.28;1805816;78;21221;-88
2022/11/29 02:09:55;;;;;;;15.08;6.42;;;;;;;5.69;100.00;149091.44;1802778;78;21595;-88
2022/11/29 02:13:02;;;;;;;23.73;6.45;;;;;;;5.68;100.00;149088.84;1800529;78;20969;-89
2022/11/29 02:15:52;;;;;;;14.30;6.87;;;;;;;5.70;100.00;149094.02;1807992;78;21468;-89
2022/11/29 02:18:55;;;;;;;13.15;6.50;;;;;;;5.67;100.00;149084.95;1801438;78;21042;-88
2022/11/29 02:21:55;;;;;;;15.72;6.17;;;;;;;5.64;100.00;149078.52;1804985;78;20953;-89
2022/11/29 02:24:30;;;;;;;15.13;6.53;;;;;;;5.59;100.00;149065.55;1804928;78;22118;-92
2022/11/29 02:27:09;;;;;;;14.50;6.78;;;;;;;5.58;100.00;149064.28;1808011;78;20957;-93
2022/11/29 02:29:52;;;;;;;18.57;7.00;;;;;;;5.56;100.00;149057.80;1810731;78;21029;-92
2022/11/29 02:32:53;;;;;;;14.47;6.92;;;;;;;5.56;100.00;149057.80;1803886;78;20934;-88
2022/11/29 02:35:52;;;;;;;14.18;7.65;;;;;;;5.57;100.00;149060.39;1801962;78;21020;-88
2022/11/29 02:38:49;;;;;;;19.07;8.08;;;;;;;5.57;100.00;149060.39;1805113;78;21450;-88
2022/11/29 02:41:38;;;;;;;17.50;7.73;;;;;;;5.56;100.00;149057.80;1803385;78;21387;-89
2022/11/29 02:44:29;;;;;;;15.83;8.13;;;;;;;5.53;100.00;149050.06;1804791;78;20920;-88
2022/11/29 02:47:23;;;;;;;15.10;7.40;;;;;;;5.51;100.00;149044.89;1785449;78;21178;-91
2022/11/29 02:50:10;;;;;;;16.85;8.05;;;;;;;5.49;100.00;149039.72;1770353;78;20997;-90
2022/11/29 02:53:05;;;;;;;16.27;8.40;;;;;;;5.49;100.00;149039.72;1808420;78;21265;-92
2022/11/29 02:55:49;;;;;;;19.77;8.80;;;;;;;5.48;100.00;149037.14;1808291;78;21036;-88
2022/11/29 02:58:27;;;;;;;21.35;8.83;;;;;;;5.44;100.00;149028.06;1809202;78;20992;-92
2022/11/29 03:01:12;;;;;;;17.48;8.68;;;;;;;5.43;100.00;149026.81;1794733;78;20950;-91
2022/11/29 03:04:01;;;;;;;19.60;8.73;;;;;;;5.41;100.00;149021.59;1805468;78;20929;-92
2022/11/29 03:06:39;;;;;;;18.50;8.68;;;;;;;5.40;100.00;149019.00;1799963;78;21857;-94
2022/11/29 03:09:32;;;;;;;18.35;8.13;;;;;;;5.38;100.00;149013.84;1809923;78;21050;-91
2022/11/29 10:26:28;;;;;;;13.97;7.80;;;;;;;3.84;100.00;47546.42;1826439;77;28952;-65
2022/11/29 10:28:56;;;;;;;15.72;7.85;;;;;;;3.84;100.00;11472.75;1810552;79;20870;-66
2022/11/29 10:31:28;;;;;;;15.05;6.80;;;;;;;3.85;100.00;13623.04;1810221;79;22233;-65
2022/11/29 10:33:56;;;;;;;14.87;6.97;;;;;;;3.81;100.00;15111.16;1780374;79;20885;-65
2022/11/29 10:36:29;;;;;;;11.30;5.80;;;;;;;3.77;100.00;16268.61;1810321;79;20885;-65
2022/11/29 10:39:00;;;;;;;12.88;6.05;;;;;;;3.73;100.00;17592.10;1810432;78;20893;-66
2022/11/29 10:41:27;;;;;;;11.60;6.47;;;;;;;3.70;100.00;18750.49;1810694;79;20901;-65
2022/11/29 10:43:56;;;;;;;11.83;6.60;;;;;;;3.66;100.00;19080.50;1810365;79;21524;-64
2022/11/29 10:46:31;;;;;;;9.13;5.35;;;;;;;3.65;100.00;19577.16;1810320;78;20826;-65
2022/11/29 10:49:01;;;;;;;10.65;6.30;;;;;;;3.65;100.00;19576.96;1810438;79;21007;-66
2022/11/29 10:51:27;;;;;;;12.98;6.35;;;;;;;3.65;100.00;19742.86;1810643;79;20925;-65
2022/11/29 10:53:54;;;;;;;15.98;7.75;;;;;;;3.66;100.00;19743.26;1810472;79;20855;-63
2022/11/29 10:56:29;;;;;;;12.55;6.60;;;;;;;3.64;100.00;19742.46;1810392;79;22098;-65
2022/11/29 10:59:06;;;;;;;11.48;6.90;;;;;;;3.65;100.00;19908.57;1810566;79;20865;-64
2022/11/29 11:01:38;;;;;;;12.93;7.42;;;;;;;3.67;100.00;19412.25;1810249;79;21054;-65
2022/11/29 11:04:08;;;;;;;15.60;6.55;;;;;;;3.70;100.00;19081.84;1810338;79;20933;-65
2022/11/29 11:06:51;;;;;;;13.53;6.85;;;;;;;3.72;100.00;19248.30;1810242;79;21331;-65
2022/11/29 11:09:34;;;;;;;12.90;6.45;;;;;;;3.77;100.00;19250.05;1810307;79;21080;-65
2022/11/29 11:12:07;;;;;;;12.50;6.00;;;;;;;3.82;100.00;19251.99;1810293;79;21374;-65
2022/11/29 11:14:36;;;;;;;14.73;5.65;;;;;;;3.89;100.00;18923.04;1810447;79;20838;-65
2022/11/29 11:17:31;;;;;;;19.35;6.03;;;;;;;3.91;100.00;19421.23;1810623;79;20925;-65
2022/11/29 11:20:09;;;;;;;14.28;6.12;;;;;;;3.95;100.00;19754.15;1810358;79;20905;-64
2022/11/29 11:22:38;;;;;;;8.30;5.72;;;;;;;3.96;100.00;21910.46;1779726;79;21796;-64
2022/11/29 11:25:26;;;;;;;8.33;4.90;;;;;;;3.98;100.00;23073.05;1808565;79;20870;-64
2022/11/29 11:27:52;;;;;;;14.30;5.42;;;;;;;3.97;100.00;25562.87;1785783;79;20936;-65
2022/11/29 11:30:27;;;;;;;11.43;5.65;;;;;;;3.97;100.00;27722.62;1804845;79;20930;-66
2022/11/29 11:33:21;;;;;;;12.30;5.00;;;;;;;3.98;100.00;29385.47;1804884;79;20930;-65
2022/11/29 11:36:20;;;;;;;12.33;5.75;;;;;;;3.97;100.00;32545.55;1804439;79;21233;-65
2022/11/29 11:39:11;;;;;;;9.48;4.80;;;;;;;3.98;100.00;33045.49;1804183;79;20965;-65
2022/11/29 11:44:51;;;;;;;10.32;5.58;;;;;;;3.99;100.00;36543.23;1804218;79;20926;-65
2022/11/29 11:47:21;;;;;;;10.58;4.97;;;;;;;3.98;100.00;41378.62;1804380;79;21012;-65
2022/11/29 11:50:08;;;;;;;8.93;5.05;;;;;;;3.96;100.00;46720.58;1804689;79;21363;-65
2022/11/29 11:52:42;;;;;;;8.58;5.05;;;;;;;3.95;100.00;47889.81;1804065;79;21367;-65
2022/11/29 11:55:42;;;;;;;6.85;4.25;;;;;;;3.97;100.00;47223.29;1804841;79;20972;-65
2022/11/29 11:58:16;;;;;;;8.23;4.53;;;;;;;3.98;100.00;47892.85;1804205;79;20969;-65
2022/11/29 12:00:55;;;;;;;8.65;4.22;;;;;;;3.98;100.00;50233.92;1804344;79;21462;-65
2022/11/29 12:03:46;;;;;;;10.70;4.97;;;;;;;3.96;100.00;53077.90;1804284;79;21226;-64
2022/11/29 12:06:46;;;;;;;9.18;4.72;;;;;;;3.95;100.00;56762.66;1804289;79;21346;-64
2022/11/29 12:09:52;;;;;;;10.65;5.03;;;;;;;3.94;100.00;58203.22;1804296;79;20838;-63
2022/11/29 12:12:29;;;;;;;7.92;4.25;;;;;;;3.91;100.00;58351.29;1804214;79;21004;-65
2022/11/29 12:15:06;;;;;;;8.90;4.10;;;;;;;3.90;100.00;59524.27;1804416;79;21457;-65
2022/11/29 12:17:40;;;;;;;9.70;4.58;;;;;;;3.90;100.00;59215.00;1804131;78;21236;-65
2022/11/29 12:20:30;;;;;;;7.42;4.55;;;;;;;3.92;100.00;58459.77;1804535;79;20901;-65
2022/11/29 12:23:15;;;;;;;5.45;3.55;;;;;;;3.90;100.00;59940.50;1804335;79;20910;-64
2022/11/29 12:25:58;;;;;;;6.20;4.00;;;;;;;3.88;100.00;62290.66;1804242;78;20992;-64
2022/11/29 12:28:31;;;;;;;10.80;4.75;;;;;;;3.89;100.00;62459.65;1804304;79;20847;-65
2022/11/29 12:31:28;;;;;;;9.95;5.53;;;;;;;3.91;100.00;62461.88;1804279;79;21904;-65
2022/11/29 12:34:22;;;;;;;8.18;5.22;;;;;;;3.92;100.00;62462.98;1804789;79;20957;-65
2022/11/29 12:37:22;;;;;;;10.20;5.17;;;;;;;3.93;100.00;63135.76;1795346;79;20976;-65
2022/11/29 12:40:15;;;;;;;7.67;4.42;;;;;;;3.92;100.00;65150.39;1803943;79;21012;-64
2022/11/29 12:43:09;;;;;;;7.58;4.37;;;;;;;3.90;100.00;67500.61;1804373;79;20952;-64
2022/11/29 12:46:08;;;;;;;8.93;4.65;;;;;;;3.89;100.00;69854.11;1804757;79;20874;-63
2022/11/29 12:48:57;;;;;;;9.05;5.28;;;;;;;3.86;100.00;71702.84;1804138;79;21466;-65
2022/11/29 12:51:52;;;;;;;7.72;5.08;;;;;;;3.85;100.00;73384.66;1804165;78;21363;-64
2022/11/29 12:54:40;;;;;;;4.87;3.45;;;;;;;3.85;100.00;73721.52;1804272;79;20977;-64
2022/11/29 12:57:33;;;;;;;9.38;5.85;;;;;;;3.85;100.00;73553.09;1804313;78;21328;-64
2022/11/29 13:00:08;;;;;;;8.73;5.00;;;;;;;3.85;100.00;72374.33;1804350;79;21228;-64
2022/11/29 13:02:49;;;;;;;9.40;5.20;;;;;;;3.83;100.00;74224.89;1804304;79;20890;-64
2022/11/29 13:05:33;;;;;;;13.60;6.60;;;;;;;3.84;100.00;75067.91;1804354;79;20913;-64
2022/11/29 13:08:17;;;;;;;9.60;5.85;;;;;;;3.82;100.00;75908.48;1804277;79;20929;-63
2022/11/29 13:11:14;;;;;;;10.13;6.72;;;;;;;3.81;100.00;78603.97;1804259;79;21450;-63
2022/11/29 13:13:59;;;;;;;10.63;7.05;;;;;;;3.78;100.00;79105.81;1803199;79;21202;-63
2022/11/29 13:16:34;;;;;;;10.38;6.47;;;;;;;3.78;100.00;78262.53;1804424;79;20918;-63
2022/11/29 13:19:29;;;;;;;;;;;;;;;3.77;100.00;77418.09;1784704;79;20985;-63
2022/11/29 13:22:03;;;;;;;9.00;5.28;;;;;;;3.78;100.00;77757.36;1804434;79;20082;-65
2022/11/29 13:24:51;;;;;;;9.38;5.30;;;;;;;3.81;100.00;76580.64;1804152;79;20981;-64
2022/11/29 13:27:26;;;;;;;9.88;5.45;;;;;;;3.83;100.00;77426.28;1812631;79;21202;-64
2022/11/29 13:29:53;;;;;;;12.03;5.78;;;;;;;3.84;100.00;79114.88;1812075;79;28222;-65
2022/11/29 13:32:34;;;;;;;11.43;5.87;;;;;;;3.86;100.00;79116.95;1813041;79;20953;-65
2022/11/29 13:35:21;;;;;;;11.10;5.80;;;;;;;3.86;100.00;82155.61;1792823;79;20905;-63
2022/11/29 13:38:19;;;;;;;11.43;5.80;;;;;;;3.84;100.00;85530.50;1813170;79;21019;-63
2022/11/29 13:40:57;;;;;;;8.65;5.35;;;;;;;3.83;100.00;86374.13;1812977;78;21302;-64
2022/11/29 13:43:41;;;;;;;8.13;4.78;;;;;;;3.83;100.00;85698.00;1812868;79;21044;-64
2022/11/29 13:46:33;;;;;;;7.10;3.83;;;;;;;3.82;100.00;85865.52;1812000;79;20953;-64
2022/11/29 13:49:00;;;;;;;8.95;4.17;;;;;;;3.83;100.00;87050.38;1813132;79;21366;-64
2022/11/29 13:51:39;;;;;;;7.37;4.28;;;;;;;3.83;100.00;87219.46;1813039;79;21129;-64
2022/11/29 13:54:30;;;;;;;6.20;4.00;;;;;;;3.84;100.00;86206.59;1812940;79;21354;-63
2022/11/29 13:57:07;;;;;;;6.67;4.40;;;;;;;3.83;100.00;86036.81;1813044;79;20933;-64
2022/11/29 13:59:36;;;;;;;10.18;5.20;;;;;;;3.82;100.00;84851.55;1813085;79;20948;-63
2022/11/29 14:02:03;;;;;;;8.35;4.55;;;;;;;3.81;100.00;83160.81;1812983;79;20917;-63
2022/11/29 14:04:38;;;;;;;8.98;4.65;;;;;;;3.78;100.00;81299.30;1781446;79;21374;-65
2022/11/29 14:07:15;;;;;;;8.65;4.70;;;;;;;3.77;100.00;78261.16;1813406;79;21129;-64
2022/11/29 14:10:04;;;;;;;9.23;5.33;;;;;;;3.77;100.00;75395.61;1813019;79;20858;-64
2022/11/29 14:12:37;;;;;;;7.30;4.15;;;;;;;3.78;100.00;72870.45;1812844;79;21336;-64
2022/11/29 14:15:27;;;;;;;10.25;5.22;;;;;;;3.78;100.00;73038.83;1813071;79;20890;-64
2022/11/29 14:18:01;;;;;;;8.95;5.17;;;;;;;3.78;100.00;75060.64;1812975;78;20969;-63
2022/11/29 14:20:34;;;;;;;9.60;5.53;;;;;;;3.82;100.00;76581.99;1813252;79;21222;-64
2022/11/29 14:23:12;;;;;;;12.15;5.42;;;;;;;3.84;100.00;75910.48;1812917;79;20985;-64
2022/11/29 14:25:43;;;;;;;12.80;5.22;;;;;;;3.85;100.00;77261.09;1811658;79;21690;-63
2022/11/29 14:28:18;;;;;;;8.90;5.20;;;;;;;3.87;100.00;78612.30;1813028;79;20944;-63
2022/11/29 14:30:51;;;;;;;7.65;3.70;;;;;;;3.89;100.00;79458.58;1813018;79;20925;-64
2022/11/29 14:33:43;;;;;;;4.30;2.10;;;;;;;3.92;100.00;79969.02;1812903;79;21358;-63
2022/11/29 14:36:31;;;;;;;4.47;1.80;;;;;;;3.95;100.00;82505.66;1800340;79;20997;-64
2022/11/29 14:39:43;;;;;;;2.20;1.50;;;;;;;4.00;100.00;86569.02;1780025;79;20980;-64
2022/11/29 14:42:21;;;;;;;3.58;2.22;;;;;;;4.03;100.00;91310.36;1813012;79;20921;-64
2022/11/29 14:45:00;;;;;;;3.72;2.00;;;;;;;4.05;100.00;110844.25;1813359;79;20933;-63
2022/11/29 14:47:37;;;;;;;3.58;1.60;;;;;;;4.04;100.00;120390.96;1812900;79;22129;-63
2022/11/29 14:50:08;;;;;;;5.17;1.62;;;;;;;4.05;100.00;120393.06;1812950;79;20878;-63
2022/11/29 14:52:39;;;;;;;3.15;1.87;;;;;;;4.06;100.00;123300.48;1812954;79;20933;-63
2022/11/29 14:55:17;;;;;;;4.33;1.50;;;;;;;4.09;100.00;131005.44;1813049;79;20936;-63
2022/11/29 14:57:53;;;;;;;2.52;1.45;;;;;;;4.09;100.00;148501.23;1813120;79;21008;-63
2022/11/29 15:00:29;;;;;;;2.98;1.60;;;;;;;4.07;100.00;148685.69;1781386;79;21442;-61
2022/11/29 15:03:27;;;;;;;3.52;1.65;;;;;;;4.07;100.00;148685.69;1812830;79;21012;-63
2022/11/29 15:06:08;;;;;;;2.77;1.37;;;;;;;4.08;100.00;148688.27;1812997;79;21055;-64
2022/11/29 15:08:56;;;;;;;4.47;1.90;;;;;;;4.07;100.00;148685.69;1812819;79;20968;-63
2022/11/29 15:12:06;;;;;;;4.03;1.85;;;;;;;4.07;100.00;148685.69;1786503;79;20866;-62
2022/11/29 15:14:59;;;;;;;3.35;1.82;;;;;;;4.03;100.00;148676.69;1813002;79;21732;-61
2022/11/29 15:17:50;;;;;;;5.65;1.62;;;;;;;4.00;100.00;148670.20;1788371;79;20933;-63
2022/11/29 15:20:54;;;;;;;6.50;1.87;;;;;;;3.98;100.00;148665.05;1813150;79;20913;-62
2022/11/29 15:23:21;;;;;;;3.75;1.80;;;;;;;3.95;100.00;148657.31;1813023;79;20968;-61
2022/11/29 15:25:53;;;;;;;3.90;2.17;;;;;;;3.93;100.00;148652.16;1813134;79;20965;-63
2022/11/29 15:28:23;;;;;;;3.27;2.25;;;;;;;3.94;100.00;148654.73;1813198;79;21287;-63
2022/11/29 15:31:06;;;;;;;4.53;1.90;;;;;;;3.92;100.00;148649.56;1813192;79;20956;-61
2022/11/29 15:33:35;;;;;;;3.00;2.08;;;;;;;3.89;100.00;148641.83;1813241;79;20991;-63
2022/11/29 15:36:15;;;;;;;4.30;2.35;;;;;;;3.86;100.00;148634.05;1813176;79;21036;-61
2022/11/29 15:38:45;;;;;;;2.35;1.65;;;;;;;3.86;100.00;148634.05;1813241;79;20929;-62
2022/11/29 15:41:19;;;;;;;6.00;1.98;;;;;;;3.86;100.00;148634.05;1813268;79;21121;-62
2022/11/29 15:43:51;;;;;;;4.47;2.08;;;;;;;3.88;100.00;148639.25;1810358;79;20980;-62
2022/11/29 15:46:20;;;;;;;4.47;2.10;;;;;;;3.89;100.00;148641.83;1813011;79;20940;-61
2022/11/29 15:48:46;;;;;;;4.67;2.20;;;;;;;3.88;100.00;148639.25;1813469;79;20973;-63
2022/11/29 15:51:29;;;;;;;5.70;2.08;;;;;;;3.85;100.00;148631.45;1813155;79;21346;-61
2022/11/29 15:54:20;;;;;;;5.45;2.20;;;;;;;3.83;100.00;148627.61;1813211;79;21772;-62
2022/11/29 15:56:53;;;;;;;5.25;1.98;;;;;;;3.83;100.00;148627.61;1812020;79;20922;-62
2022/11/29 15:59:46;;;;;;;4.20;2.08;;;;;;;3.84;100.00;148628.88;1813110;79;21451;-63
2022/11/29 16:02:33;;;;;;;7.97;2.08;;;;;;;3.83;100.00;148627.61;1812750;79;20997;-63
2022/11/29 16:05:16;;;;;;;3.40;1.90;;;;;;;3.83;100.00;148626.30;1813037;79;21008;-63
2022/11/29 16:07:44;;;;;;;5.05;1.90;;;;;;;3.83;100.00;148626.30;1813204;79;21121;-62
2022/11/29 16:10:19;;;;;;;3.72;1.80;;;;;;;3.82;100.00;148623.72;1812936;79;20964;-62
2022/11/29 16:12:56;;;;;;;4.25;1.80;;;;;;;3.80;100.00;148618.56;1813056;79;21042;-62
2022/11/29 16:15:33;;;;;;;2.98;1.80;;;;;;;3.78;100.00;148613.41;1812981;79;20984;-62
2022/11/29 16:18:14;;;;;;;6.75;2.05;;;;;;;3.78;100.00;148614.72;1813529;79;20926;-63
2022/11/29 16:20:41;;;;;;;4.45;1.95;;;;;;;3.81;100.00;148621.14;1813056;79;21907;-61
2022/11/29 16:23:13;;;;;;;6.87;2.27;;;;;;;3.82;100.00;148623.72;1813206;79;20890;-63
2022/11/29 16:25:59;;;;;;;4.25;2.17;;;;;;;3.79;100.00;148615.98;1812875;79;20945;-62
2022/11/29 16:28:34;;;;;;;3.65;2.10;;;;;;;3.77;100.00;148610.81;1819074;79;20881;-61
2022/11/29 16:31:01;;;;;;;6.90;2.70;;;;;;;3.72;100.00;148599.19;1819401;79;20885;-62
2022/11/29 16:33:28;;;;;;;4.53;2.45;;;;;;;3.70;100.00;148594.03;1819006;79;21301;-64
2022/11/29 16:36:11;;;;;;;3.15;2.65;;;;;;;3.67;100.00;148587.61;1819153;79;20838;-62
2022/11/29 16:38:53;;;;;;;7.00;2.22;;;;;;;3.62;100.00;148574.66;1819099;79;20984;-62
2022/11/29 23:41:00;;;;;;;23.67;12.13;;;;;;;2.28;100.00;148240.56;1793504;80;22471;-62
2022/11/29 23:43:35;;;;;;;21.87;10.68;;;;;;;2.23;100.00;148228.94;1796412;80;20912;-62
2022/11/29 23:46:09;;;;;;;25.27;12.35;;;;;;;2.24;100.00;148231.52;1796244;80;21333;-62
2022/11/29 23:48:36;;;;;;;23.47;11.03;;;;;;;2.25;100.00;148234.09;1791968;80;20900;-61
2022/11/29 23:51:03;;;;;;;25.88;11.95;;;;;;;2.25;100.00;148232.83;1796233;80;21326;-60
2022/11/29 23:53:30;;;;;;;23.18;11.35;;;;;;;2.23;100.00;148228.94;1796191;80;20952;-61
2022/11/29 23:56:04;;;;;;;22.00;12.13;;;;;;;2.24;100.00;148231.52;1796300;80;21342;-61
2022/11/29 23:58:31;;;;;;;26.60;11.18;;;;;;;2.26;100.00;148236.66;1796530;80;22037;-62
